Time,TemperatureF,DewpointF,PressureIn,WindDirection,WindDirectionDegrees,WindSpeedMPH,WindSpeedGustMPH,Humidity,HourlyPrecipIn,Conditions,Clouds,dailyrainin,SoftwareType,DateUTC
2013-09-27 00:04:00,77.6,60.0,29.86,SSE,155,4.0,9.0,55,0.00,,,0.00,weatherlink.com 1.10,2013-09-27 05:04:00,
2013-09-27 00:19:00,77.5,59.0,29.86,SE,132,4.0,11.0,54,0.00,,,0.00,weatherlink.com 1.10,2013-09-27 05:19:00,
2013-09-27 00:34:00,77.2,60.0,29.86,SE,134,5.0,10.0,55,0.00,,,0.00,weatherlink.com 1.10,2013-09-27 05:34:00,
2013-09-27 00:49:00,77.1,60.0,29.86,SSE,158,3.0,10.0,55,0.00,,,0.00,weatherlink.com 1.10,2013-09-27 05:49:00,
2013-09-27 01:04:00,76.9,59.0,29.86,SSW,196,2.0,9.0,55,0.00,,,0.00,weatherlink.com 1.10,2013-09-27 06:04:00,
2013-09-27 01:19:00,76.2,60.0,29.86,South,186,3.0,10.0,57,0.00,,,0.00,weatherlink.com 1.10,2013-09-27 06:19:00,
2013-09-27 01:34:00,75.9,59.0,29.86,SSE,165,5.0,8.0,57,0.00,,,0.00,weatherlink.com 1.10,2013-09-27 06:34:00,
2013-09-27 01:49:00,75.6,60.0,29.87,SSE,159,4.0,8.0,58,0.00,,,0.00,weatherlink.com 1.10,2013-09-27 06:49:00,
2013-09-27 02:04:00,75.4,59.0,29.87,SSE,151,4.0,10.0,58,0.00,,,0.00,weatherlink.com 1.10,2013-09-27 07:04:00,
2013-09-27 02:19:00,74.9,60.0,29.87,SSE,165,1.0,6.0,60,0.00,,,0.00,weatherlink.com 1.10,2013-09-27 07:19:00,
2013-09-27 02:34:00,74.4,60.0,29.88,SSE,167,1.0,7.0,61,0.00,,,0.00,weatherlink.com 1.10,2013-09-27 07:34:00,
2013-09-27 02:49:00,73.7,60.0,29.88,SSE,167,1.0,5.0,62,0.00,,,0.00,weatherlink.com 1.10,2013-09-27 07:49:00,
2013-09-27 03:05:00,73.1,60.0,29.88,SSE,153,0.0,5.0,64,0.00,,,0.00,weatherlink.com 1.10,2013-09-27 08:05:00,
2013-09-27 03:20:00,72.6,60.0,29.88,South,180,1.0,6.0,65,0.00,,,0.00,weatherlink.com 1.10,2013-09-27 08:20:00,
2013-09-27 03:35:00,72.5,60.0,29.88,SSE,154,1.0,5.0,65,0.00,,,0.00,weatherlink.com 1.10,2013-09-27 08:35:00,
2013-09-27 03:50:00,72.3,60.0,29.88,SSE,164,3.0,5.0,66,0.00,,,0.00,weatherlink.com 1.10,2013-09-27 08:50:00,
2013-09-27 04:05:00,72.2,60.0,29.88,South,173,1.0,5.0,66,0.00,,,0.00,weatherlink.com 1.10,2013-09-27 09:05:00,
2013-09-27 04:20:00,72.1,61.0,29.88,SSE,152,3.0,5.0,67,0.00,,,0.00,weatherlink.com 1.10,2013-09-27 09:20:00,
2013-09-27 04:35:00,72.0,61.0,29.87,SSE,154,3.0,7.0,68,0.00,,,0.00,weatherlink.com 1.10,2013-09-27 09:35:00,
2013-09-27 04:50:00,71.8,60.0,29.87,South,176,1.0,7.0,67,0.00,,,0.00,weatherlink.com 1.10,2013-09-27 09:50:00,
2013-09-27 05:05:00,71.6,60.0,29.88,SE,134,3.0,5.0,68,0.00,,,0.00,weatherlink.com 1.10,2013-09-27 10:05:00,
2013-09-27 05:20:00,71.3,61.0,29.88,South,173,1.0,6.0,69,0.00,,,0.00,weatherlink.com 1.10,2013-09-27 10:20:00,
2013-09-27 05:35:00,71.1,60.0,29.88,SE,135,1.0,6.0,69,0.00,,,0.00,weatherlink.com 1.10,2013-09-27 10:35:00,
2013-09-27 05:50:00,70.3,60.0,29.89,SE,128,2.0,5.0,71,0.00,,,0.00,weatherlink.com 1.10,2013-09-27 10:50:00,
2013-09-27 06:05:00,69.7,61.0,29.89,SE,129,3.0,5.0,73,0.00,,,0.00,weatherlink.com 1.10,2013-09-27 11:05:00,
2013-09-27 06:20:00,69.4,61.0,29.90,ESE,117,1.0,6.0,74,0.00,,,0.00,weatherlink.com 1.10,2013-09-27 11:20:00,
2013-09-27 06:35:00,69.2,61.0,29.90,SE,127,1.0,7.0,75,0.00,,,0.00,weatherlink.com 1.10,2013-09-27 11:35:00,
2013-09-27 06:50:00,69.0,61.0,29.90,SSE,157,0.0,6.0,75,0.00,,,0.00,weatherlink.com 1.10,2013-09-27 11:50:00,
2013-09-27 07:05:00,68.8,61.0,29.90,SE,134,4.0,5.0,76,0.00,,,0.00,weatherlink.com 1.10,2013-09-27 12:05:00,
2013-09-27 07:20:00,68.9,61.0,29.90,ESE,113,0.0,7.0,77,0.00,,,0.00,weatherlink.com 1.10,2013-09-27 12:20:00,
2013-09-27 07:35:00,69.0,62.0,29.90,ESE,113,0.0,7.0,77,0.00,,,0.00,weatherlink.com 1.10,2013-09-27 12:35:00,
2013-09-27 07:50:00,69.4,62.0,29.90,ESE,103,1.0,8.0,77,0.00,,,0.00,weatherlink.com 1.10,2013-09-27 12:50:00,
2013-09-27 08:05:00,70.1,63.0,29.91,SE,142,0.0,6.0,77,0.00,,,0.00,weatherlink.com 1.10,2013-09-27 13:05:00,
2013-09-27 08:20:00,70.9,63.0,29.91,ESE,111,2.0,7.0,77,0.00,,,0.00,weatherlink.com 1.10,2013-09-27 13:20:00,
2013-09-27 08:35:00,72.2,64.0,29.91,SE,137,3.0,10.0,75,0.00,,,0.00,weatherlink.com 1.10,2013-09-27 13:35:00,
2013-09-27 08:50:00,73.2,64.0,29.92,SE,127,1.0,9.0,73,0.00,,,0.00,weatherlink.com 1.10,2013-09-27 13:50:00,
2013-09-27 09:05:00,74.4,65.0,29.92,SE,143,3.0,8.0,73,0.00,,,0.00,weatherlink.com 1.10,2013-09-27 14:05:00,
2013-09-27 09:20:00,75.4,66.0,29.92,SSE,163,3.0,8.0,73,0.00,,,0.00,weatherlink.com 1.10,2013-09-27 14:20:00,
2013-09-27 09:35:00,77.1,67.0,29.92,SSW,209,8.0,8.0,70,0.00,,,0.00,weatherlink.com 1.10,2013-09-27 14:35:00,
2013-09-27 09:50:00,77.5,67.0,29.92,SSE,164,4.0,11.0,71,0.00,,,0.00,weatherlink.com 1.10,2013-09-27 14:50:00,
2013-09-27 10:05:00,79.4,68.0,29.92,SE,126,3.0,10.0,69,0.00,,,0.00,weatherlink.com 1.10,2013-09-27 15:05:00,
2013-09-27 10:20:00,79.2,69.0,29.92,South,175,8.0,9.0,71,0.00,,,0.00,weatherlink.com 1.10,2013-09-27 15:20:00,
2013-09-27 10:35:00,80.2,70.0,29.93,SSW,198,3.0,9.0,70,0.00,,,0.00,weatherlink.com 1.10,2013-09-27 15:35:00,
2013-09-27 10:50:00,81.0,70.0,29.93,SSE,150,3.0,10.0,69,0.00,,,0.00,weatherlink.com 1.10,2013-09-27 15:50:00,
2013-09-27 11:05:00,82.3,70.0,29.92,South,183,5.0,12.0,67,0.00,,,0.00,weatherlink.com 1.10,2013-09-27 16:05:00,
2013-09-27 11:20:00,83.2,71.0,29.92,SSE,159,1.0,12.0,66,0.00,,,0.00,weatherlink.com 1.10,2013-09-27 16:20:00,
2013-09-27 11:36:00,83.9,71.0,29.91,South,175,2.0,10.0,65,0.00,,,0.00,weatherlink.com 1.10,2013-09-27 16:36:00,
2013-09-27 11:51:00,85.3,72.0,29.91,SSE,163,3.0,8.0,64,0.00,,,0.00,weatherlink.com 1.10,2013-09-27 16:51:00,
2013-09-27 12:06:00,85.8,71.0,29.90,SE,134,5.0,10.0,62,0.00,,,0.00,weatherlink.com 1.10,2013-09-27 17:06:00,
2013-09-27 12:21:00,86.8,71.0,29.90,SSE,166,2.0,9.0,59,0.00,,,0.00,weatherlink.com 1.10,2013-09-27 17:21:00,
2013-09-27 12:36:00,85.7,72.0,29.90,SSE,154,10.0,11.0,63,0.00,,,0.00,weatherlink.com 1.10,2013-09-27 17:36:00,
2013-09-27 12:51:00,86.3,70.0,29.89,SSE,165,8.0,13.0,59,0.00,,,0.00,weatherlink.com 1.10,2013-09-27 17:51:00,
2013-09-27 13:06:00,86.0,71.0,29.89,SSE,167,4.0,13.0,61,0.00,,,0.00,weatherlink.com 1.10,2013-09-27 18:06:00,
2013-09-27 13:21:00,86.1,71.0,29.89,SE,134,7.0,9.0,61,0.00,,,0.00,weatherlink.com 1.10,2013-09-27 18:21:00,
2013-09-27 13:36:00,85.9,70.0,29.88,SE,137,5.0,9.0,60,0.00,,,0.00,weatherlink.com 1.10,2013-09-27 18:36:00,
2013-09-27 14:06:00,86.1,71.0,29.87,South,171,6.0,10.0,60,0.00,,,0.00,weatherlink.com 1.10,2013-09-27 19:06:00,
2013-09-27 14:21:00,88.3,72.0,29.86,South,176,8.0,10.0,58,0.00,,,0.00,weatherlink.com 1.10,2013-09-27 19:21:00,
2013-09-27 14:36:00,88.4,71.0,29.86,South,173,4.0,8.0,57,0.00,,,0.00,weatherlink.com 1.10,2013-09-27 19:36:00,
2013-09-27 14:51:00,88.8,72.0,29.85,SSE,155,5.0,11.0,57,0.00,,,0.00,weatherlink.com 1.10,2013-09-27 19:51:00,
2013-09-27 15:06:00,88.0,71.0,29.84,ESE,114,4.0,10.0,58,0.00,,,0.00,weatherlink.com 1.10,2013-09-27 20:06:00,
2013-09-27 15:21:00,87.1,71.0,29.84,ESE,123,0.0,10.0,59,0.00,,,0.00,weatherlink.com 1.10,2013-09-27 20:21:00,
2013-09-27 15:36:00,86.3,71.0,29.84,SSE,166,0.0,11.0,60,0.00,,,0.00,weatherlink.com 1.10,2013-09-27 20:36:00,
2013-09-27 15:51:00,86.8,71.0,29.84,SSE,164,4.0,11.0,60,0.00,,,0.00,weatherlink.com 1.10,2013-09-27 20:51:00,
2013-09-27 16:06:00,87.7,71.0,29.84,SSE,154,1.0,14.0,58,0.00,,,0.00,weatherlink.com 1.10,2013-09-27 21:06:00,
2013-09-27 16:21:00,87.0,71.0,29.84,SSE,163,3.0,13.0,59,0.00,,,0.00,weatherlink.com 1.10,2013-09-27 21:21:00,
2013-09-27 16:36:00,86.7,71.0,29.84,SSE,162,4.0,10.0,60,0.00,,,0.00,weatherlink.com 1.10,2013-09-27 21:36:00,
2013-09-27 16:51:00,86.8,71.0,29.84,SE,134,4.0,14.0,59,0.00,,,0.00,weatherlink.com 1.10,2013-09-27 21:51:00,
2013-09-27 17:06:00,86.4,71.0,29.84,SE,126,4.0,10.0,60,0.00,,,0.00,weatherlink.com 1.10,2013-09-27 22:06:00,
2013-09-27 17:21:00,86.6,71.0,29.84,South,172,3.0,11.0,60,0.00,,,0.00,weatherlink.com 1.10,2013-09-27 22:21:00,
2013-09-27 17:36:00,87.3,71.0,29.83,SSE,162,9.0,11.0,59,0.00,,,0.00,weatherlink.com 1.10,2013-09-27 22:36:00,
2013-09-27 17:51:00,86.8,71.0,29.83,SE,129,4.0,11.0,59,0.00,,,0.00,weatherlink.com 1.10,2013-09-27 22:51:00,
2013-09-27 18:06:00,87.2,71.0,29.83,SSE,156,4.0,10.0,59,0.00,,,0.00,weatherlink.com 1.10,2013-09-27 23:06:00,
2013-09-27 18:21:00,86.8,70.0,29.83,ESE,123,3.0,12.0,58,0.00,,,0.00,weatherlink.com 1.10,2013-09-27 23:21:00,
2013-09-27 18:36:00,86.1,70.0,29.83,SE,138,3.0,10.0,59,0.00,,,0.00,weatherlink.com 1.10,2013-09-27 23:36:00,
2013-09-27 18:51:00,85.2,70.0,29.84,ESE,123,3.0,11.0,61,0.00,,,0.00,weatherlink.com 1.10,2013-09-27 23:51:00,
2013-09-27 19:06:00,84.9,70.0,29.83,ESE,114,3.0,9.0,62,0.00,,,0.00,weatherlink.com 1.10,2013-09-28 00:06:00,
2013-09-27 19:21:00,84.4,70.0,29.83,ESE,114,8.0,9.0,62,0.00,,,0.00,weatherlink.com 1.10,2013-09-28 00:21:00,
2013-09-27 19:36:00,83.7,70.0,29.82,SSE,165,6.0,13.0,63,0.00,,,0.00,weatherlink.com 1.10,2013-09-28 00:36:00,
2013-09-27 19:51:00,83.2,69.0,29.83,SSE,148,2.0,8.0,63,0.00,,,0.00,weatherlink.com 1.10,2013-09-28 00:51:00,
2013-09-27 20:06:00,82.7,69.0,29.83,SSE,147,9.0,10.0,63,0.00,,,0.00,weatherlink.com 1.10,2013-09-28 01:06:00,
2013-09-27 20:21:00,82.5,69.0,29.83,SE,128,4.0,7.0,63,0.00,,,0.00,weatherlink.com 1.10,2013-09-28 01:21:00,
2013-09-27 20:36:00,81.9,69.0,29.83,SSE,159,4.0,12.0,64,0.00,,,0.00,weatherlink.com 1.10,2013-09-28 01:36:00,
2013-09-27 20:51:00,81.4,69.0,29.83,SE,142,5.0,10.0,65,0.00,,,0.00,weatherlink.com 1.10,2013-09-28 01:51:00,
2013-09-27 21:06:00,81.1,68.0,29.84,ESE,117,5.0,12.0,65,0.00,,,0.00,weatherlink.com 1.10,2013-09-28 02:06:00,
2013-09-27 21:21:00,80.7,68.0,29.84,South,175,2.0,11.0,65,0.00,,,0.00,weatherlink.com 1.10,2013-09-28 02:21:00,
2013-09-27 21:36:00,80.7,68.0,29.84,SE,136,4.0,12.0,65,0.00,,,0.00,weatherlink.com 1.10,2013-09-28 02:36:00,
2013-09-27 21:51:00,80.3,68.0,29.84,ESE,119,7.0,12.0,66,0.00,,,0.00,weatherlink.com 1.10,2013-09-28 02:51:00,
2013-09-27 22:06:00,80.2,68.0,29.84,SE,146,3.0,13.0,67,0.00,,,0.00,weatherlink.com 1.10,2013-09-28 03:06:00,
2013-09-27 22:21:00,80.3,68.0,29.85,SE,128,3.0,12.0,67,0.00,,,0.00,weatherlink.com 1.10,2013-09-28 03:21:00,
2013-09-27 22:36:00,80.6,69.0,29.86,SE,140,2.0,10.0,67,0.00,,,0.00,weatherlink.com 1.10,2013-09-28 03:36:00,
2013-09-27 22:51:00,80.7,68.0,29.86,South,188,5.0,10.0,66,0.00,,,0.00,weatherlink.com 1.10,2013-09-28 03:51:00,
2013-09-27 23:06:00,80.4,68.0,29.86,South,184,5.0,7.0,67,0.00,,,0.00,weatherlink.com 1.10,2013-09-28 04:06:00,
2013-09-27 23:21:00,80.3,68.0,29.86,SE,141,6.0,10.0,67,0.00,,,0.00,weatherlink.com 1.10,2013-09-28 04:21:00,
2013-09-27 23:36:00,79.7,69.0,29.87,SSE,163,4.0,9.0,69,0.00,,,0.00,weatherlink.com 1.10,2013-09-28 04:36:00,
2013-09-27 23:51:00,79.7,69.0,29.87,SSE,153,4.0,9.0,69,0.00,,,0.00,weatherlink.com 1.10,2013-09-28 04:51:00,